createdAt,value
2023-04-20T00:02:30.368Z,7.03
2023-04-20T00:05:02.509Z,7.50
2023-04-20T00:07:34.437Z,7.15
2023-04-20T00:10:07.308Z,7.22
2023-04-20T00:12:39.194Z,7.20
2023-04-20T00:15:11.646Z,7.35
2023-04-20T00:17:44.530Z,7.55
2023-04-20T00:20:16.537Z,7.78
2023-04-20T00:22:48.433Z,7.85
2023-04-20T00:25:21.004Z,7.80
2023-04-20T00:27:52.795Z,8.00
2023-04-20T00:30:24.848Z,7.88
2023-04-20T00:32:56.932Z,8.82
2023-04-20T00:35:29.087Z,8.20
2023-04-20T00:38:00.991Z,8.93
2023-04-20T00:40:33.548Z,8.50
2023-04-20T00:43:12.487Z,8.73
2023-04-20T00:45:44.474Z,9.13
2023-04-20T00:48:16.787Z,9.27
2023-04-20T00:50:50.305Z,9.85
2023-04-20T00:53:22.314Z,9.85
2023-04-20T00:55:54.754Z,10.30
2023-04-20T00:58:26.951Z,9.43
2023-04-20T01:00:58.856Z,10.85
2023-04-20T01:03:30.988Z,10.90
2023-04-20T01:06:03.903Z,10.93
2023-04-20T01:08:35.844Z,10.02
2023-04-20T01:11:09.250Z,10.82
2023-04-20T01:13:41.155Z,10.75
2023-04-20T01:16:16.542Z,10.15
2023-04-20T01:18:51.157Z,9.90
2023-04-20T01:21:23.097Z,9.90
2023-04-20T01:23:55.462Z,9.43
2023-04-20T01:26:27.467Z,9.73
2023-04-20T01:28:59.414Z,10.07
2023-04-20T01:31:31.804Z,10.77
2023-04-20T01:34:03.956Z,10.38
2023-04-20T01:36:35.980Z,11.27
2023-04-20T01:39:08.746Z,11.23
2023-04-20T01:41:41.057Z,12.60
2023-04-20T01:44:12.945Z,12.13
2023-04-20T01:46:44.898Z,13.23
2023-04-20T01:49:18.684Z,13.18
2023-04-20T01:51:50.864Z,12.95
2023-04-20T01:54:22.933Z,12.77
2023-04-20T01:56:54.816Z,12.77
2023-04-20T01:59:26.716Z,13.95
2023-04-20T02:01:58.667Z,14.88
2023-04-20T02:04:30.844Z,13.82
2023-04-20T02:07:02.809Z,13.25
2023-04-20T02:09:34.669Z,11.80
2023-04-20T02:12:06.658Z,11.00
2023-04-20T02:14:38.811Z,10.40
2023-04-20T02:17:14.677Z,9.93
2023-04-20T02:19:47.095Z,10.85
2023-04-20T02:22:19.559Z,9.50
2023-04-20T02:24:51.517Z,9.93
2023-04-20T02:27:23.405Z,9.65
2023-04-20T02:29:55.275Z,9.95
2023-04-20T02:32:27.839Z,9.65
2023-04-20T02:34:59.838Z,10.63
2023-04-20T02:37:31.720Z,11.80
2023-04-20T02:40:05.033Z,13.35
2023-04-20T02:42:37.009Z,12.32
2023-04-20T02:45:12.421Z,11.95
2023-04-20T02:47:47.276Z,12.77
2023-04-20T02:50:20.888Z,13.07
2023-04-20T02:53:11.394Z,12.95
2023-04-20T02:55:44.151Z,13.15
2023-04-20T02:58:27.639Z,13.13
2023-04-20T03:03:53.763Z,11.98
2023-04-20T03:06:26.687Z,12.07
2023-04-20T03:09:01.552Z,10.55
2023-04-20T03:11:56.090Z,12.13
2023-04-20T03:15:06.438Z,11.38
2023-04-20T03:18:04.779Z,11.20
2023-04-20T03:20:37.048Z,10.57
2023-04-20T03:23:09.360Z,11.50
2023-04-20T03:25:41.666Z,12.55
2023-04-20T03:28:23.946Z,12.43
2023-04-20T03:30:55.841Z,11.95
2023-04-20T03:33:28.164Z,11.50
2023-04-20T03:36:00.100Z,12.63
2023-04-20T03:38:32.037Z,13.30
2023-04-20T03:41:04.018Z,13.15
2023-04-20T03:43:35.949Z,13.00
2023-04-20T03:46:08.331Z,12.77
2023-04-20T03:48:40.612Z,11.70
2023-04-20T03:51:12.509Z,11.15
2023-04-20T03:53:44.404Z,11.32
2023-04-20T03:56:18.532Z,11.75
2023-04-20T03:58:50.660Z,11.63
2023-04-20T04:01:27.039Z,11.45
2023-04-20T04:03:59.271Z,10.68
2023-04-20T04:06:32.249Z,10.40
2023-04-20T04:09:04.226Z,10.93
2023-04-20T04:11:36.213Z,10.68
2023-04-20T04:14:08.169Z,11.35
2023-04-20T04:16:42.174Z,11.15
2023-04-20T04:19:15.421Z,10.68
2023-04-20T04:21:48.653Z,10.10
2023-04-20T04:24:21.685Z,9.40
2023-04-20T04:27:15.644Z,10.63
2023-04-20T04:29:56.804Z,11.73
2023-04-20T04:32:29.224Z,10.95
2023-04-20T04:35:01.371Z,10.23
2023-04-20T04:37:33.796Z,9.73
2023-04-20T04:40:09.748Z,9.40
2023-04-20T04:42:42.976Z,9.73
2023-04-20T04:45:16.643Z,9.85
2023-04-20T04:47:48.900Z,8.82
2023-04-20T04:50:21.819Z,7.80
2023-04-20T04:52:53.717Z,8.50
2023-04-20T04:55:25.585Z,7.25
2023-04-20T04:57:57.388Z,6.03
2023-04-20T05:00:29.621Z,6.22
2023-04-20T05:03:01.498Z,5.93
2023-04-20T05:05:33.538Z,6.50
2023-04-20T05:08:05.607Z,7.13
2023-04-20T05:10:37.540Z,6.15
2023-04-20T05:13:09.400Z,4.70
2023-04-20T05:15:43.333Z,4.82
2023-04-20T05:18:16.030Z,4.60
2023-04-20T05:20:47.981Z,3.80
2023-04-20T05:23:19.899Z,3.63
2023-04-20T05:25:51.967Z,2.80
2023-04-20T05:28:24.424Z,2.53
2023-04-20T05:30:56.402Z,2.67
2023-04-20T05:33:29.150Z,2.80
2023-04-20T05:36:01.189Z,5.15
2023-04-20T05:38:35.894Z,9.68
2023-04-20T05:41:07.796Z,2.95
2023-04-20T05:43:39.601Z,2.60
2023-04-20T05:46:11.522Z,2.95
2023-04-20T05:48:43.463Z,2.60
2023-04-20T05:51:15.673Z,2.88
2023-04-20T05:53:47.585Z,4.38
2023-04-20T05:56:19.499Z,3.45
2023-04-20T05:58:52.220Z,2.38
2023-04-20T06:01:24.137Z,2.33
2023-04-20T06:03:56.418Z,1.70
2023-04-20T06:06:28.565Z,1.60
2023-04-20T06:09:00.657Z,1.75
2023-04-20T06:11:32.675Z,1.70
2023-04-20T06:14:04.554Z,1.55
2023-04-20T06:16:36.504Z,1.58
2023-04-20T06:19:08.400Z,1.60
2023-04-20T06:21:40.594Z,1.75
2023-04-20T06:24:12.502Z,1.73
2023-04-20T06:26:44.456Z,1.50
2023-04-20T06:29:16.519Z,1.70
2023-04-20T06:31:48.633Z,1.40
2023-04-20T06:34:20.687Z,1.30
2023-04-20T06:36:52.681Z,2.00
2023-04-20T06:39:24.496Z,1.35
2023-04-20T06:41:56.809Z,1.38
2023-04-20T06:44:28.791Z,1.52
2023-04-20T06:47:00.763Z,1.70
2023-04-20T06:49:32.698Z,1.35
2023-04-20T06:52:04.922Z,34.65
2023-04-20T06:54:36.836Z,1.60
2023-04-20T06:57:08.777Z,23.38
2023-04-20T06:59:40.612Z,1.75
2023-04-20T07:02:12.661Z,1.38
2023-04-20T07:04:44.568Z,1.30
2023-04-20T07:07:16.752Z,1.83
2023-04-20T07:09:48.626Z,1.75
2023-04-20T07:12:20.472Z,1.50
2023-04-20T07:14:52.370Z,1.50
2023-04-20T07:17:28.025Z,1.50
2023-04-20T07:20:08.150Z,1.65
2023-04-20T07:22:40.270Z,1.50
2023-04-20T07:25:12.144Z,1.02
2023-04-20T07:27:43.955Z,1.48
2023-04-20T07:30:15.922Z,1.17
2023-04-20T07:32:48.752Z,1.15
2023-04-20T07:35:20.887Z,1.15
2023-04-20T07:37:52.786Z,1.48
2023-04-20T07:40:24.788Z,1.20
2023-04-20T07:42:56.597Z,1.02
2023-04-20T07:45:28.549Z,1.15
2023-04-20T07:48:02.454Z,1.38
2023-04-20T07:50:34.454Z,1.48
2023-04-20T07:53:06.349Z,1.42
2023-04-20T07:55:38.266Z,1.20
2023-04-20T07:58:10.221Z,1.30
2023-04-20T08:00:42.130Z,1.52
2023-04-20T08:03:15.299Z,1.42
2023-04-20T08:05:47.433Z,1.60
2023-04-20T08:08:19.308Z,1.30
2023-04-20T08:10:51.275Z,1.50
2023-04-20T08:13:23.132Z,1.38
2023-04-20T08:15:55.052Z,1.40
2023-04-20T08:18:26.979Z,1.20
2023-04-20T08:20:58.830Z,1.10
2023-04-20T08:23:30.961Z,1.50
2023-04-20T08:26:04.105Z,1.80
2023-04-20T08:28:36.011Z,1.45
2023-04-20T08:31:07.903Z,1.33
2023-04-20T08:33:39.761Z,1.70
2023-04-20T08:36:12.057Z,1.60
2023-04-20T08:38:44.340Z,1.73
2023-04-20T08:41:16.227Z,1.65
2023-04-20T08:43:50.099Z,1.70
2023-04-20T08:46:22.943Z,1.42
2023-04-20T08:48:55.900Z,1.75
2023-04-20T08:51:28.306Z,1.60
2023-04-20T08:54:05.960Z,1.70
2023-04-20T08:56:40.560Z,2.22
2023-04-20T08:59:14.343Z,2.20
2023-04-20T09:01:46.460Z,3.13
2023-04-20T09:04:23.490Z,4.55
2023-04-20T09:06:56.603Z,4.90
2023-04-20T09:09:28.812Z,5.57
2023-04-20T09:12:07.092Z,4.82
2023-04-20T09:14:43.868Z,3.80
2023-04-20T09:17:17.993Z,5.43
2023-04-20T09:19:53.822Z,5.75
2023-04-20T09:22:34.341Z,5.18
2023-04-20T09:25:16.679Z,6.03
2023-04-20T09:27:59.960Z,5.20
2023-04-20T09:30:43.758Z,5.13
2023-04-20T09:33:15.910Z,5.25
2023-04-20T09:35:48.080Z,3.50
2023-04-20T09:38:27.202Z,2.80
2023-04-20T09:41:02.280Z,3.20
2023-04-20T09:43:36.286Z,2.55
2023-04-20T09:46:08.419Z,1.80
2023-04-20T09:48:40.457Z,1.65
2023-04-20T09:51:12.895Z,1.65
2023-04-20T09:53:46.557Z,1.73
2023-04-20T09:56:18.640Z,1.70
2023-04-20T09:58:51.785Z,1.60
2023-04-20T10:01:24.494Z,1.70
2023-04-20T10:03:56.646Z,1.83
2023-04-20T10:06:31.301Z,2.17
2023-04-20T10:09:05.572Z,2.20
2023-04-20T10:11:52.514Z,2.50
2023-04-20T10:14:26.328Z,2.67
2023-04-20T10:17:07.131Z,2.30
2023-04-20T10:19:40.194Z,2.50
2023-04-20T10:22:25.146Z,2.70
2023-04-20T10:24:57.091Z,2.35
2023-04-20T10:27:29.121Z,2.83
2023-04-20T10:30:13.743Z,2.70
2023-04-20T10:32:45.789Z,2.90
2023-04-20T10:35:17.912Z,2.90
2023-04-20T10:37:51.679Z,3.10
2023-04-20T10:40:29.814Z,2.72
2023-04-20T10:43:01.734Z,2.78
2023-04-20T10:45:35.595Z,3.00
2023-04-20T10:48:10.553Z,2.80
2023-04-20T10:50:42.757Z,2.30
2023-04-20T10:53:22.003Z,2.72
2023-04-20T10:56:01.021Z,3.22
2023-04-20T10:58:33.013Z,3.30
2023-04-20T11:01:05.571Z,3.00
2023-04-20T11:03:37.870Z,3.47
2023-04-20T11:06:09.980Z,3.10
2023-04-20T11:08:43.590Z,3.30
2023-04-20T11:11:21.924Z,3.80
2023-04-20T11:14:09.474Z,3.65
2023-04-20T11:16:52.459Z,3.35
2023-04-20T11:19:27.219Z,3.60
2023-04-20T11:21:59.461Z,4.00
2023-04-20T11:24:33.783Z,3.88
2023-04-20T11:27:05.915Z,4.28
2023-04-20T11:29:39.431Z,4.72
2023-04-20T11:32:11.763Z,4.53
2023-04-20T11:34:46.153Z,4.55
2023-04-20T11:37:19.915Z,5.45
2023-04-20T11:40:09.485Z,6.53
2023-04-20T11:42:41.354Z,7.05
2023-04-20T11:45:13.310Z,7.22
2023-04-20T11:47:45.970Z,6.28
2023-04-20T11:50:18.594Z,6.10
2023-04-20T11:52:50.595Z,4.90
2023-04-20T11:55:22.860Z,4.90
2023-04-20T11:57:54.751Z,4.60
2023-04-20T12:00:27.057Z,4.13
2023-04-20T12:03:02.506Z,4.60
2023-04-20T12:05:34.897Z,3.80
2023-04-20T12:08:08.431Z,4.40
2023-04-20T12:10:42.157Z,4.22
2023-04-20T12:13:15.080Z,3.55
2023-04-20T12:15:47.520Z,3.33
2023-04-20T12:18:19.841Z,3.17
2023-04-20T12:20:54.987Z,3.00
2023-04-20T12:23:27.676Z,3.00
2023-04-20T12:26:00.026Z,3.17
2023-04-20T12:28:32.612Z,3.38
2023-04-20T12:31:04.965Z,2.40
2023-04-20T12:33:37.596Z,2.50
2023-04-20T12:36:09.646Z,2.67
2023-04-20T12:38:41.707Z,2.45
2023-04-20T12:41:15.364Z,2.15
2023-04-20T12:43:47.400Z,2.50
2023-04-20T12:46:19.639Z,2.88
2023-04-20T12:48:51.660Z,2.42
2023-04-20T12:51:23.557Z,2.35
2023-04-20T12:53:55.540Z,2.20
2023-04-20T12:56:27.416Z,2.20
2023-04-20T12:58:59.328Z,2.25
2023-04-20T13:01:31.319Z,2.30
2023-04-20T13:04:03.512Z,1.75
2023-04-20T13:06:35.757Z,1.55
2023-04-20T13:09:07.920Z,1.60
2023-04-20T13:11:39.870Z,1.40
2023-04-20T13:14:11.727Z,1.63
2023-04-20T13:16:43.811Z,1.50
2023-04-20T13:19:16.735Z,1.40
2023-04-20T13:21:49.232Z,1.02
2023-04-20T13:24:21.215Z,1.00
2023-04-20T13:26:58.406Z,1.15
2023-04-20T13:29:30.665Z,1.10
2023-04-20T13:32:03.018Z,1.00
2023-04-20T13:34:35.224Z,1.17
2023-04-20T13:37:07.381Z,1.02
2023-04-20T13:39:39.296Z,0.85
2023-04-20T13:42:11.224Z,1.38
2023-04-20T13:44:43.757Z,0.98
2023-04-20T13:47:15.759Z,0.80
2023-04-20T13:49:47.914Z,0.70
2023-04-20T13:52:20.030Z,0.85
2023-04-20T13:54:51.932Z,1.00
2023-04-20T13:57:23.855Z,1.05
2023-04-20T13:59:55.789Z,1.20
2023-04-20T14:02:28.935Z,1.20
2023-04-20T14:05:01.137Z,1.40
2023-04-20T14:07:33.550Z,1.10
2023-04-20T14:10:08.497Z,1.33
2023-04-20T14:12:40.538Z,1.27
2023-04-20T14:15:13.439Z,1.50
2023-04-20T14:17:45.892Z,1.80
2023-04-20T14:20:17.896Z,1.63
2023-04-20T14:22:50.114Z,2.45
2023-04-20T14:25:22.185Z,1.92
2023-04-20T14:27:54.177Z,2.20
2023-04-20T14:30:26.410Z,2.28
2023-04-20T14:33:00.373Z,2.80
2023-04-20T14:35:32.495Z,3.10
2023-04-20T14:38:04.504Z,3.00
2023-04-20T14:40:36.560Z,3.30
2023-04-20T14:43:08.711Z,3.30
2023-04-20T14:45:41.767Z,3.42
2023-04-20T14:48:13.691Z,3.70
2023-04-20T14:50:45.656Z,3.67
2023-04-20T14:53:17.535Z,3.40
2023-04-20T14:55:49.721Z,3.47
2023-04-20T14:58:23.956Z,3.60
2023-04-20T15:00:55.949Z,3.60
2023-04-20T15:03:31.348Z,3.15
2023-04-20T15:06:06.833Z,3.38
2023-04-20T15:08:39.823Z,3.30
2023-04-20T15:11:11.695Z,3.63
2023-04-20T15:13:44.066Z,3.80
2023-04-20T15:16:21.145Z,3.97
2023-04-20T15:18:56.401Z,3.83
2023-04-20T15:21:29.015Z,4.07
2023-04-20T15:24:00.896Z,3.60
2023-04-20T15:26:33.232Z,4.40
2023-04-20T15:29:05.182Z,4.00
2023-04-20T15:31:37.692Z,4.28
2023-04-20T15:34:11.299Z,4.10
2023-04-20T15:36:43.648Z,4.30
2023-04-20T15:39:15.928Z,4.63
2023-04-20T15:41:47.833Z,4.70
2023-04-20T15:44:19.882Z,4.57
2023-04-20T15:46:51.962Z,4.03
2023-04-20T15:49:23.938Z,4.20
2023-04-20T15:51:55.827Z,4.10
2023-04-20T15:54:27.679Z,3.58
2023-04-20T15:56:59.662Z,3.20
2023-04-20T15:59:32.283Z,3.00
2023-04-20T16:02:04.202Z,3.00
2023-04-20T16:04:36.344Z,2.95
2023-04-20T16:07:09.413Z,2.70
2023-04-20T16:09:41.632Z,2.67
2023-04-20T16:12:13.548Z,2.83
2023-04-20T16:14:45.795Z,2.83
2023-04-20T16:17:17.731Z,2.60
2023-04-20T16:19:50.058Z,2.05
2023-04-20T16:22:22.079Z,2.03
2023-04-20T16:24:54.081Z,1.90
2023-04-20T16:27:26.820Z,1.67
2023-04-20T16:29:59.060Z,1.60
2023-04-20T16:32:31.545Z,1.33
2023-04-20T16:35:03.589Z,1.50
2023-04-20T16:37:35.667Z,1.63
2023-04-20T16:40:09.738Z,3.00
2023-04-20T16:42:41.744Z,1.90
2023-04-20T16:45:13.637Z,1.40
2023-04-20T16:47:46.295Z,1.63
2023-04-20T16:50:21.833Z,1.55
2023-04-20T16:52:53.756Z,1.70
2023-04-20T16:55:26.203Z,2.20
2023-04-20T16:58:02.347Z,1.92
2023-04-20T17:00:34.441Z,1.98
2023-04-20T17:03:09.016Z,2.10
2023-04-20T17:05:44.973Z,2.08
2023-04-20T17:08:21.745Z,2.08
2023-04-20T17:10:53.629Z,2.25
2023-04-20T17:13:25.507Z,2.30
2023-04-20T17:15:57.540Z,2.70
2023-04-20T17:18:29.477Z,2.80
2023-04-20T17:21:02.137Z,2.72
2023-04-20T17:23:38.168Z,2.80
2023-04-20T17:26:10.275Z,2.63
2023-04-20T17:28:42.215Z,2.60
2023-04-20T17:31:14.190Z,2.80
2023-04-20T17:33:47.292Z,2.72
2023-04-20T17:36:22.443Z,2.88
2023-04-20T17:38:54.516Z,3.33
2023-04-20T17:41:26.448Z,3.13
2023-04-20T17:43:58.329Z,3.00
2023-04-20T17:46:30.461Z,2.97
2023-04-20T17:49:04.106Z,2.83
2023-04-20T17:51:36.614Z,3.20
2023-04-20T17:54:11.401Z,3.05
2023-04-20T17:56:46.663Z,3.03
2023-04-20T17:59:18.591Z,2.97
2023-04-20T18:01:50.629Z,3.00
2023-04-20T18:04:23.189Z,3.60
2023-04-20T18:06:57.232Z,3.72
2023-04-20T18:09:30.856Z,3.70
2023-04-20T18:12:11.254Z,3.60
2023-04-20T18:14:44.217Z,4.32
2023-04-20T18:17:16.835Z,4.40
2023-04-20T18:19:48.852Z,4.45
2023-04-20T18:22:21.698Z,4.93
2023-04-20T18:25:00.358Z,4.05
2023-04-20T18:27:33.844Z,4.45
2023-04-20T18:30:06.932Z,4.20
2023-04-20T18:32:39.642Z,4.78
2023-04-20T18:35:13.273Z,4.97
2023-04-20T18:37:45.779Z,10.73
2023-04-20T18:40:17.656Z,6.88
2023-04-20T18:42:49.563Z,5.60
2023-04-20T18:45:23.695Z,5.85
2023-04-20T18:48:18.570Z,5.22
2023-04-20T18:50:51.146Z,5.00
2023-04-20T18:53:23.140Z,5.10
2023-04-20T18:55:55.041Z,4.65
2023-04-20T18:58:26.999Z,4.47
2023-04-20T19:01:01.343Z,4.20
2023-04-20T19:03:33.344Z,3.85
2023-04-20T19:06:05.555Z,3.65
2023-04-20T19:08:37.395Z,3.85
2023-04-20T19:11:09.306Z,3.47
2023-04-20T19:13:45.314Z,3.67
2023-04-20T19:16:17.612Z,3.72
2023-04-20T19:18:50.487Z,3.28
2023-04-20T19:21:23.088Z,4.10
2023-04-20T19:24:02.174Z,3.35
2023-04-20T19:26:34.527Z,3.65
2023-04-20T19:29:06.539Z,8.20
2023-04-20T19:31:40.275Z,6.25
2023-04-20T19:34:20.787Z,2.90
2023-04-20T19:36:57.913Z,2.55
2023-04-20T19:39:34.710Z,2.97
2023-04-20T19:42:07.792Z,2.88
2023-04-20T19:44:39.649Z,2.78
2023-04-20T19:47:11.829Z,2.92
2023-04-20T19:49:43.700Z,2.58
2023-04-20T19:52:16.013Z,2.95
2023-04-20T19:54:47.911Z,2.50
2023-04-20T19:57:19.834Z,2.50
2023-04-20T19:59:51.749Z,5.45
2023-04-20T20:02:23.743Z,3.47
2023-04-20T20:04:55.715Z,2.70
2023-04-20T20:07:28.194Z,2.40
2023-04-20T20:10:00.306Z,3.33
2023-04-20T20:12:32.312Z,3.75
2023-04-20T20:15:04.831Z,3.53
2023-04-20T20:17:37.020Z,3.15
2023-04-20T20:20:12.261Z,3.35
2023-04-20T20:22:48.348Z,3.70
2023-04-20T20:25:21.932Z,3.53
2023-04-20T20:27:54.141Z,3.22
2023-04-20T20:30:26.127Z,3.15
2023-04-20T20:33:01.250Z,3.42
2023-04-20T20:35:33.211Z,3.10
2023-04-20T20:38:07.766Z,3.60
2023-04-20T20:40:40.057Z,3.55
2023-04-20T20:43:12.944Z,3.25
2023-04-20T20:45:44.839Z,3.65
2023-04-20T20:48:16.701Z,3.40
2023-04-20T20:50:48.676Z,3.10
2023-04-20T20:53:21.011Z,3.10
2023-04-20T20:55:54.195Z,3.40
2023-04-20T20:58:26.072Z,3.05
2023-04-20T21:00:57.963Z,3.28
2023-04-20T21:03:29.997Z,3.97
2023-04-20T21:06:02.179Z,3.50
2023-04-20T21:08:34.231Z,3.33
2023-04-20T21:11:06.612Z,3.70
2023-04-20T21:13:38.698Z,3.60
2023-04-20T21:16:10.745Z,3.60
2023-04-20T21:18:42.676Z,3.28
2023-04-20T21:21:15.596Z,3.28
2023-04-20T21:23:49.124Z,2.88
2023-04-20T21:26:21.148Z,3.30
2023-04-20T21:28:52.980Z,2.80
2023-04-20T21:31:24.929Z,2.85
2023-04-20T21:33:59.781Z,2.47
2023-04-20T21:36:32.805Z,8.27
2023-04-20T21:39:04.879Z,2.75
2023-04-20T21:41:36.724Z,2.60
2023-04-20T21:44:08.714Z,2.42
2023-04-20T21:46:41.425Z,2.80
2023-04-20T21:49:13.508Z,2.20
2023-04-20T21:51:45.744Z,2.13
2023-04-20T21:54:18.707Z,1.85
2023-04-20T21:56:50.630Z,1.80
2023-04-20T21:59:22.623Z,1.58
2023-04-20T22:01:54.623Z,1.40
2023-04-20T22:04:27.082Z,1.30
2023-04-20T22:07:00.548Z,1.30
2023-04-20T22:09:32.475Z,1.27
2023-04-20T22:12:05.335Z,1.50
2023-04-20T22:14:37.287Z,1.23
2023-04-20T22:17:09.653Z,1.30
2023-04-20T22:19:42.240Z,1.20
2023-04-20T22:22:14.108Z,1.30
2023-04-20T22:24:46.035Z,1.40
2023-04-20T22:27:17.997Z,1.02
2023-04-20T22:29:49.980Z,5.00
2023-04-20T22:32:22.044Z,1.13
2023-04-20T22:34:54.099Z,0.85
2023-04-20T22:37:27.355Z,0.90
2023-04-20T22:40:00.405Z,1.20
2023-04-20T22:42:32.403Z,1.08
2023-04-20T22:45:05.030Z,1.20
2023-04-20T22:47:37.729Z,0.90
2023-04-20T22:50:12.050Z,0.90
2023-04-20T22:52:44.082Z,1.10
2023-04-20T22:55:16.480Z,0.93
2023-04-20T22:57:48.364Z,0.75
2023-04-20T23:00:20.516Z,0.80
2023-04-20T23:02:52.545Z,0.80
2023-04-20T23:05:24.841Z,0.70
2023-04-20T23:07:56.879Z,0.60
2023-04-20T23:10:29.616Z,0.70
2023-04-20T23:13:01.583Z,0.65
2023-04-20T23:15:33.581Z,0.70
2023-04-20T23:18:05.947Z,0.70
2023-04-20T23:20:38.179Z,0.70
2023-04-20T23:23:10.918Z,0.70
2023-04-20T23:25:42.861Z,0.63
2023-04-20T23:28:14.837Z,0.90
2023-04-20T23:30:46.723Z,0.73
2023-04-20T23:33:18.552Z,0.70
2023-04-20T23:35:50.615Z,0.60
2023-04-20T23:38:22.544Z,0.88
2023-04-20T23:40:54.756Z,0.70
2023-04-20T23:43:32.555Z,0.82
2023-04-20T23:46:08.451Z,0.80
2023-04-20T23:48:40.485Z,1.00
2023-04-20T23:51:12.466Z,1.08
2023-04-20T23:53:44.615Z,1.10
2023-04-20T23:56:16.617Z,1.13
2023-04-20T23:58:48.619Z,1.20
